createdAt,value
2018-05-04T00:01:30.108Z,99347.56
2018-05-04T00:03:57.793Z,99350.94
2018-05-04T00:06:25.505Z,99350.44
2018-05-04T00:08:53.187Z,99350.77
2018-05-04T00:11:20.843Z,99353.13
2018-05-04T00:13:48.474Z,99349.26
2018-05-04T00:16:16.173Z,99350.77
2018-05-04T00:18:43.923Z,99351.17
2018-05-04T00:21:11.622Z,99351.33
2018-05-04T00:23:39.246Z,99354.52
2018-05-04T00:26:06.913Z,99357.17
2018-05-04T00:28:34.553Z,99363.88
2018-05-04T00:31:02.162Z,99359.81
2018-05-04T00:33:29.771Z,99372.55
2018-05-04T00:35:57.357Z,99368.25
2018-05-04T00:38:24.941Z,99370.03
2018-05-04T00:40:52.561Z,99367.34
2018-05-04T00:43:20.184Z,99365.88
2018-05-04T00:45:47.801Z,99368.17
2018-05-04T00:48:15.410Z,99364.42
2018-05-04T00:50:43.037Z,99372.88
2018-05-04T00:53:10.642Z,99371.45
2018-05-04T00:55:38.236Z,99376.56
2018-05-04T00:58:05.853Z,99376.29
2018-05-04T01:00:33.459Z,99382.48
2018-05-04T01:03:01.049Z,99380.40
2018-05-04T01:05:28.663Z,99384.54
2018-05-04T01:07:56.253Z,99391.16
2018-05-04T01:10:23.853Z,99387.64
2018-05-04T01:12:51.492Z,99389.64
2018-05-04T01:15:19.122Z,99390.16
2018-05-04T01:17:46.776Z,99399.20
2018-05-04T01:20:14.490Z,99406.19
2018-05-04T01:22:42.137Z,99399.84
2018-05-04T01:25:09.785Z,99394.98
2018-05-04T01:27:37.497Z,99390.75
2018-05-04T01:30:05.166Z,99388.23
2018-05-04T01:32:32.833Z,99386.19
2018-05-04T01:35:00.537Z,99384.91
2018-05-04T01:37:28.261Z,99384.05
2018-05-04T01:39:55.910Z,99389.75
2018-05-04T01:42:23.557Z,99392.80
2018-05-04T01:44:51.246Z,99394.80
2018-05-04T01:47:18.969Z,99390.70
2018-05-04T01:49:46.604Z,99387.23
2018-05-04T01:52:14.222Z,99381.48
2018-05-04T01:54:41.932Z,99384.47
2018-05-04T01:57:09.637Z,99384.52
2018-05-04T01:59:37.265Z,99383.41
2018-05-04T02:02:04.908Z,99380.43
2018-05-04T02:04:32.647Z,99374.39
2018-05-04T02:07:00.273Z,99370.73
2018-05-04T02:09:27.895Z,99371.59
2018-05-04T02:11:55.578Z,99371.36
2018-05-04T02:14:23.216Z,99380.77
2018-05-04T02:16:50.869Z,99386.66
2018-05-04T02:19:18.546Z,99398.64
2018-05-04T02:21:46.220Z,99402.57
2018-05-04T02:24:13.938Z,99411.48
2018-05-04T02:26:41.554Z,99403.64
2018-05-04T02:29:09.210Z,99406.31
2018-05-04T02:31:36.858Z,99415.20
2018-05-04T02:34:04.481Z,99420.59
2018-05-04T02:36:32.098Z,99418.52
2018-05-04T02:38:59.802Z,99418.16
2018-05-04T02:41:27.423Z,99421.56
2018-05-04T02:43:55.106Z,99414.28
2018-05-04T02:46:22.750Z,99412.70
2018-05-04T02:48:50.405Z,99413.03
2018-05-04T02:51:18.090Z,99422.77
2018-05-04T02:53:45.758Z,99432.23
2018-05-04T02:56:13.383Z,99438.36
2018-05-04T02:58:41.046Z,99429.64
2018-05-04T03:01:08.721Z,99439.67
2018-05-04T03:03:36.498Z,99444.53
2018-05-04T03:06:04.181Z,99452.05
2018-05-04T03:08:31.831Z,99445.20
2018-05-04T03:10:59.549Z,99433.67
2018-05-04T03:13:27.241Z,99433.12
2018-05-04T03:15:54.894Z,99430.74
2018-05-04T03:18:25.119Z,99424.86
2018-05-04T03:20:52.882Z,99427.30
2018-05-04T03:23:20.644Z,99430.36
2018-05-04T03:25:48.330Z,99430.52
2018-05-04T03:28:16.002Z,99443.46
2018-05-04T03:30:43.742Z,99444.78
2018-05-04T03:33:11.414Z,99445.84
2018-05-04T03:35:39.101Z,99460.75
2018-05-04T03:38:06.781Z,99458.86
2018-05-04T03:40:34.454Z,99453.02
2018-05-04T03:43:02.090Z,99454.79
2018-05-04T03:45:29.723Z,99455.62
2018-05-04T03:47:57.369Z,99460.25
2018-05-04T03:50:24.985Z,99461.05
2018-05-04T03:52:52.610Z,99464.79
2018-05-04T03:55:20.290Z,99464.62
2018-05-04T03:57:59.569Z,99471.17
2018-05-04T04:00:38.870Z,99472.75
2018-05-04T04:06:05.937Z,99474.78
2018-05-04T04:08:33.574Z,99481.81
2018-05-04T04:11:01.158Z,99488.74
2018-05-04T04:13:28.765Z,99484.38
2018-05-04T04:15:56.423Z,99481.88
2018-05-04T04:18:24.013Z,99475.37
2018-05-04T04:20:51.606Z,99471.35
2018-05-04T04:23:19.249Z,99469.03
2018-05-04T04:25:46.853Z,99468.69
2018-05-04T04:28:14.571Z,99475.84
2018-05-04T04:30:42.137Z,99477.64
2018-05-04T04:33:09.728Z,99474.89
2018-05-04T04:35:37.388Z,99479.52
2018-05-04T04:38:04.990Z,99477.25
2018-05-04T04:40:32.589Z,99476.97
2018-05-04T04:43:00.181Z,99480.19
2018-05-04T04:45:27.882Z,99487.44
2018-05-04T04:47:55.589Z,99492.09
2018-05-04T04:50:23.209Z,99494.32
2018-05-04T04:52:50.850Z,99495.50
2018-05-04T04:55:18.543Z,99486.20
2018-05-04T04:57:46.177Z,99491.54
2018-05-04T05:00:13.790Z,99494.02
2018-05-04T05:02:41.474Z,99495.64
2018-05-04T05:05:09.086Z,99495.87
2018-05-04T05:07:36.710Z,99487.62
2018-05-04T05:10:04.393Z,99489.41
2018-05-04T05:12:32.011Z,99487.12
2018-05-04T05:14:59.642Z,99486.60
2018-05-04T05:17:27.234Z,99486.52
2018-05-04T05:19:54.838Z,99486.10
2018-05-04T05:22:22.558Z,99481.34
2018-05-04T05:24:50.221Z,99483.69
2018-05-04T05:27:17.832Z,99484.88
2018-05-04T05:29:45.521Z,99490.55
2018-05-04T05:32:13.189Z,99484.97
2018-05-04T05:34:40.845Z,99491.09
2018-05-04T05:37:08.509Z,99489.67
2018-05-04T05:39:36.242Z,99498.59
2018-05-04T05:42:03.841Z,99502.80
2018-05-04T05:44:31.479Z,99504.31
2018-05-04T05:46:59.089Z,99510.67
2018-05-04T05:49:26.694Z,99512.81
2018-05-04T05:51:54.449Z,99502.52
2018-05-04T05:54:22.002Z,99502.73
2018-05-04T05:56:49.613Z,99505.80
2018-05-04T05:59:17.240Z,99503.95
2018-05-04T06:01:44.829Z,99505.23
2018-05-04T06:04:12.417Z,99506.53
2018-05-04T06:06:40.097Z,99511.13
2018-05-04T06:09:07.726Z,99510.40
2018-05-04T06:11:35.871Z,99516.20
2018-05-04T06:14:03.561Z,99507.34
2018-05-04T06:16:31.222Z,99515.11
2018-05-04T06:18:58.848Z,99518.09
2018-05-04T06:21:26.487Z,99508.16
2018-05-04T06:23:54.077Z,99519.25
2018-05-04T06:26:21.681Z,99520.00
2018-05-04T06:28:49.323Z,99514.44
2018-05-04T06:31:16.909Z,99516.95
2018-05-04T06:33:44.581Z,99514.76
2018-05-04T06:36:12.241Z,99512.05
2018-05-04T06:38:39.921Z,99512.36
2018-05-04T06:41:07.519Z,99510.08
2018-05-04T06:43:35.157Z,99505.78
2018-05-04T06:46:02.832Z,99507.97
2018-05-04T06:48:30.453Z,99510.64
2018-05-04T06:50:58.221Z,99516.20
2018-05-04T06:53:25.939Z,99518.66
2018-05-04T06:55:53.606Z,99524.06
2018-05-04T06:58:21.240Z,99522.05
2018-05-04T07:00:48.858Z,99525.52
2018-05-04T07:03:16.493Z,99525.67
2018-05-04T07:05:44.189Z,99526.90
2018-05-04T07:08:12.520Z,99532.19
2018-05-04T07:10:40.189Z,99524.22
2018-05-04T07:13:07.869Z,99520.25
2018-05-04T07:15:35.512Z,99519.63
2018-05-04T07:18:03.221Z,99521.16
2018-05-04T07:20:30.896Z,99521.73
2018-05-04T07:22:58.593Z,99525.45
2018-05-04T07:25:26.251Z,99513.95
2018-05-04T07:27:53.942Z,99508.94
2018-05-04T07:30:21.712Z,99515.52
2018-05-04T07:32:49.367Z,99515.58
2018-05-04T07:35:17.094Z,99514.00
2018-05-04T07:37:44.793Z,99510.04
2018-05-04T07:40:12.426Z,99512.77
2018-05-04T07:42:40.066Z,99511.00
2018-05-04T07:45:07.718Z,99503.39
2018-05-04T07:47:35.445Z,99500.91
2018-05-04T07:50:03.113Z,99494.83
2018-05-04T07:52:30.721Z,99490.93
2018-05-04T07:54:58.353Z,99487.53
2018-05-04T07:57:25.973Z,99490.59
2018-05-04T07:59:53.601Z,99486.64
2018-05-04T08:02:21.189Z,99483.92
2018-05-04T08:04:48.781Z,99472.92
2018-05-04T08:07:19.378Z,99469.53
2018-05-04T08:09:47.014Z,99477.08
2018-05-04T08:12:14.601Z,99481.16
2018-05-04T08:14:42.189Z,99469.81
2018-05-04T08:17:09.821Z,99473.02
2018-05-04T08:19:37.409Z,99478.47
2018-05-04T08:22:05.032Z,99485.94
2018-05-04T08:24:32.678Z,99491.78
2018-05-04T08:27:00.269Z,99492.05
2018-05-04T08:29:27.873Z,99486.04
2018-05-04T08:31:55.541Z,99486.80
2018-05-04T08:34:23.181Z,99475.73
2018-05-04T08:36:50.806Z,99477.62
2018-05-04T08:39:18.434Z,99472.95
2018-05-04T08:41:46.107Z,99477.45
2018-05-04T08:44:13.850Z,99464.64
2018-05-04T08:46:41.521Z,99471.09
2018-05-04T08:49:09.208Z,99477.82
2018-05-04T08:51:36.804Z,99470.83
2018-05-04T08:54:04.474Z,99472.02
2018-05-04T08:56:32.154Z,99470.86
2018-05-04T08:58:59.783Z,99464.95
2018-05-04T09:01:27.450Z,99467.70
2018-05-04T09:03:55.118Z,99463.59
2018-05-04T09:06:22.794Z,99467.61
2018-05-04T09:08:50.431Z,99465.82
2018-05-04T09:11:18.074Z,99464.48
2018-05-04T09:13:45.855Z,99458.53
2018-05-04T09:16:13.490Z,99460.53
2018-05-04T09:18:41.129Z,99461.77
2018-05-04T09:21:08.794Z,99455.88
2018-05-04T09:23:36.458Z,99447.91
2018-05-04T09:26:05.342Z,99456.15
2018-05-04T09:28:33.007Z,99456.81
2018-05-04T09:31:00.746Z,99455.16
2018-05-04T09:33:28.302Z,99447.84
2018-05-04T09:35:56.027Z,99454.69
2018-05-04T09:38:23.738Z,99449.19
2018-05-04T09:40:51.478Z,99445.66
2018-05-04T09:43:19.146Z,99447.85
2018-05-04T09:45:46.810Z,99440.88
2018-05-04T09:48:14.542Z,99443.91
2018-05-04T09:50:42.186Z,99444.98
2018-05-04T09:53:09.855Z,99448.41
2018-05-04T09:55:37.554Z,99447.41
2018-05-04T09:58:05.195Z,99450.16
2018-05-04T10:00:32.814Z,99441.05
2018-05-04T10:03:00.551Z,99456.66
2018-05-04T10:05:28.197Z,99446.32
2018-05-04T10:07:55.781Z,99450.14
2018-05-04T10:10:23.370Z,99444.94
2018-05-04T10:12:51.031Z,99449.38
2018-05-04T10:15:18.710Z,99444.45
2018-05-04T10:17:46.346Z,99445.08
2018-05-04T10:20:13.974Z,99452.70
2018-05-04T10:22:41.582Z,99448.64
2018-05-04T10:25:09.253Z,99444.94
2018-05-04T10:27:36.905Z,99440.61
2018-05-04T10:30:04.598Z,99437.22
2018-05-04T10:32:32.334Z,99438.25
2018-05-04T10:34:59.950Z,99424.11
2018-05-04T10:37:27.541Z,99421.53
2018-05-04T10:39:55.243Z,99422.23
2018-05-04T10:42:22.925Z,99418.45
2018-05-04T10:44:50.574Z,99418.73
2018-05-04T10:47:18.218Z,99418.59
2018-05-04T10:49:45.841Z,99421.69
2018-05-04T10:52:13.594Z,99422.88
2018-05-04T10:54:41.282Z,99423.48
2018-05-04T10:57:09.079Z,99426.20
2018-05-04T10:59:36.780Z,99422.33
2018-05-04T11:02:04.476Z,99416.54
2018-05-04T11:04:32.109Z,99414.23
2018-05-04T11:06:59.823Z,99415.39
2018-05-04T11:09:27.470Z,99409.45
2018-05-04T11:11:55.295Z,99414.50
2018-05-04T11:14:22.982Z,99410.84
2018-05-04T11:16:50.623Z,99414.66
2018-05-04T11:19:18.294Z,99406.51
2018-05-04T11:21:45.954Z,99414.67
2018-05-04T11:24:13.626Z,99405.27
2018-05-04T11:26:41.287Z,99404.73
2018-05-04T11:29:08.946Z,99403.71
2018-05-04T11:31:36.573Z,99401.68
2018-05-04T11:34:04.181Z,99398.35
2018-05-04T11:36:31.817Z,99395.36
2018-05-04T11:38:59.453Z,99403.24
2018-05-04T11:41:27.154Z,99390.91
2018-05-04T11:43:54.954Z,99389.91
2018-05-04T11:46:22.678Z,99390.39
2018-05-04T11:48:50.300Z,99384.66
2018-05-04T11:51:17.951Z,99380.86
2018-05-04T11:53:45.573Z,99374.82
2018-05-04T11:56:13.161Z,99384.10
2018-05-04T11:58:40.792Z,99380.89
2018-05-04T12:01:08.413Z,99386.30
2018-05-04T12:03:36.093Z,99385.39
2018-05-04T12:06:03.856Z,99383.03
2018-05-04T12:08:31.486Z,99381.63
2018-05-04T12:10:59.125Z,99378.14
2018-05-04T12:13:26.962Z,99374.30
2018-05-04T12:15:54.675Z,99377.56
2018-05-04T12:18:22.284Z,99375.52
2018-05-04T12:20:51.462Z,99376.87
2018-05-04T12:23:19.052Z,99376.44
2018-05-04T12:25:46.645Z,99369.76
2018-05-04T12:28:14.249Z,99373.09
2018-05-04T12:30:41.856Z,99359.70
2018-05-04T12:33:09.550Z,99362.69
2018-05-04T12:35:37.130Z,99363.41
2018-05-04T12:38:04.860Z,99352.13
2018-05-04T12:40:32.471Z,99351.69
2018-05-04T12:43:00.118Z,99345.70
2018-05-04T12:45:27.776Z,99344.61
2018-05-04T12:47:55.414Z,99349.55
2018-05-04T12:50:23.126Z,99341.75
2018-05-04T12:52:50.766Z,99341.86
2018-05-04T12:55:18.397Z,99341.67
2018-05-04T12:57:46.121Z,99337.14
2018-05-04T13:00:13.821Z,99338.61
2018-05-04T13:02:41.447Z,99341.59
2018-05-04T13:05:09.108Z,99337.86
2018-05-04T13:07:36.722Z,99335.42
2018-05-04T13:10:04.362Z,99335.25
2018-05-04T13:12:32.055Z,99332.52
2018-05-04T13:14:59.784Z,99335.80
2018-05-04T13:17:27.473Z,99333.05
2018-05-04T13:19:55.213Z,99330.80
2018-05-04T13:22:22.882Z,99329.77
2018-05-04T13:24:50.586Z,99320.73
2018-05-04T13:27:18.286Z,99318.20
2018-05-04T13:29:45.895Z,99321.34
2018-05-04T13:32:13.526Z,99319.35
2018-05-04T13:34:41.273Z,99318.41
2018-05-04T13:37:08.902Z,99313.61
2018-05-04T13:39:36.538Z,99315.58
2018-05-04T13:42:04.274Z,99316.12
2018-05-04T13:44:31.948Z,99317.13
2018-05-04T13:46:59.614Z,99316.83
2018-05-04T13:49:27.310Z,99311.17
2018-05-04T13:51:55.010Z,99311.00
2018-05-04T13:54:22.673Z,99304.94
2018-05-04T13:56:50.377Z,99304.48
2018-05-04T13:59:18.057Z,99298.86
2018-05-04T14:01:45.757Z,99298.91
2018-05-04T14:04:13.422Z,99299.27
2018-05-04T14:06:41.138Z,99295.47
2018-05-04T14:09:08.803Z,99295.30
2018-05-04T14:11:36.482Z,99293.13
2018-05-04T14:14:04.118Z,99297.56
2018-05-04T14:16:31.806Z,99295.05
2018-05-04T14:18:59.498Z,99292.48
2018-05-04T14:21:27.146Z,99301.70
2018-05-04T14:23:54.809Z,99300.10
2018-05-04T14:26:22.490Z,99299.23
2018-05-04T14:28:50.183Z,99301.73
2018-05-04T14:31:17.856Z,99301.38
2018-05-04T14:33:45.577Z,99294.75
2018-05-04T14:36:13.190Z,99299.97
2018-05-04T14:38:40.824Z,99300.75
2018-05-04T14:41:08.557Z,99309.64
2018-05-04T14:43:36.250Z,99305.22
2018-05-04T14:46:03.947Z,99303.68
2018-05-04T14:48:31.615Z,99299.65
2018-05-04T14:50:59.285Z,99298.20
2018-05-04T14:53:26.916Z,99303.77
2018-05-04T14:55:54.634Z,99300.66
2018-05-04T14:58:22.250Z,99308.56
2018-05-04T15:00:49.878Z,99309.70
2018-05-04T15:03:17.586Z,99311.45
2018-05-04T15:05:45.225Z,99314.93
2018-05-04T15:08:14.541Z,99317.88
2018-05-04T15:10:42.325Z,99321.70
2018-05-04T15:13:09.970Z,99324.95
2018-05-04T15:15:37.591Z,99327.38
2018-05-04T15:18:05.358Z,99328.98
2018-05-04T15:20:32.936Z,99331.92
2018-05-04T15:23:00.557Z,99327.07
2018-05-04T15:25:28.263Z,99332.18
2018-05-04T15:27:55.894Z,99328.14
2018-05-04T15:30:23.497Z,99328.19
2018-05-04T15:32:51.160Z,99330.80
2018-05-04T15:35:22.730Z,99329.60
2018-05-04T15:37:50.357Z,99336.55
2018-05-04T15:40:18.090Z,99334.57
2018-05-04T15:42:45.785Z,99330.16
2018-05-04T15:45:13.434Z,99326.70
2018-05-04T15:47:41.138Z,99319.83
2018-05-04T15:53:12.952Z,99323.17
2018-05-04T15:55:40.590Z,99326.64
2018-05-04T15:58:08.194Z,99323.24
2018-05-04T16:00:35.821Z,99316.36
2018-05-04T16:03:03.419Z,99330.36
2018-05-04T16:05:31.013Z,99335.10
2018-05-04T16:07:58.657Z,99329.81
2018-05-04T16:10:26.241Z,99337.75
2018-05-04T16:12:53.854Z,99333.32
2018-05-04T16:15:21.516Z,99329.63
2018-05-04T16:17:49.102Z,99325.66
2018-05-04T16:20:16.700Z,99331.03
2018-05-04T16:22:44.322Z,99326.59
2018-05-04T16:25:11.914Z,99327.01
2018-05-04T16:27:39.525Z,99326.62
2018-05-04T16:30:07.189Z,99326.76
2018-05-04T16:32:34.808Z,99326.19
2018-05-04T16:35:02.402Z,99332.15
2018-05-04T16:37:30.022Z,99326.30
2018-05-04T16:39:57.605Z,99330.05
2018-05-04T16:42:25.217Z,99328.86
2018-05-04T16:44:52.871Z,99338.32
2018-05-04T16:47:22.350Z,99341.16
2018-05-04T16:49:49.939Z,99343.98
2018-05-04T16:52:17.589Z,99347.11
2018-05-04T16:54:45.563Z,99345.00
2018-05-04T16:57:13.313Z,99345.27
2018-05-04T16:59:41.010Z,99354.28
2018-05-04T17:02:08.648Z,99348.62
2018-05-04T17:04:36.351Z,99356.48
2018-05-04T17:07:04.471Z,99348.07
2018-05-04T17:09:32.161Z,99345.90
2018-05-04T17:11:59.877Z,99340.31
2018-05-04T17:14:27.570Z,99344.84
2018-05-04T17:16:55.258Z,99345.81
2018-05-04T17:19:22.997Z,99351.61
2018-05-04T17:21:50.710Z,99353.94
2018-05-04T17:24:18.634Z,99352.56
2018-05-04T17:26:46.407Z,99356.76
2018-05-04T17:29:14.077Z,99353.55
2018-05-04T17:31:41.836Z,99352.77
2018-05-04T17:34:09.598Z,99353.94
2018-05-04T17:36:37.279Z,99350.64
2018-05-04T17:39:05.646Z,99345.92
2018-05-04T17:41:33.270Z,99355.16
2018-05-04T17:44:01.010Z,99348.70
2018-05-04T17:46:28.718Z,99353.13
2018-05-04T17:48:56.427Z,99359.27
2018-05-04T17:51:24.126Z,99349.08
2018-05-04T17:53:51.813Z,99358.94
2018-05-04T17:56:19.502Z,99358.77
2018-05-04T17:58:47.177Z,99357.43
2018-05-04T18:01:14.829Z,99363.36
2018-05-04T18:03:42.458Z,99360.52
2018-05-04T18:06:10.070Z,99361.27
2018-05-04T18:08:37.714Z,99366.69
2018-05-04T18:11:05.357Z,99373.02
2018-05-04T18:13:32.998Z,99370.30
2018-05-04T18:16:00.701Z,99374.73
2018-05-04T18:18:28.335Z,99376.19
2018-05-04T18:20:56.045Z,99382.91
2018-05-04T18:23:23.678Z,99380.97
2018-05-04T18:25:51.314Z,99392.22
2018-05-04T18:28:18.971Z,99387.27
2018-05-04T18:30:46.705Z,99386.66
2018-05-04T18:33:14.348Z,99386.36
2018-05-04T18:35:42.052Z,99386.35
2018-05-04T18:38:09.725Z,99390.42
2018-05-04T18:40:37.326Z,99394.15
2018-05-04T18:43:05.014Z,99396.82
2018-05-04T18:45:32.634Z,99396.59
2018-05-04T18:48:00.270Z,99396.17
2018-05-04T18:50:27.866Z,99400.66
2018-05-04T18:52:55.473Z,99405.39
2018-05-04T18:55:23.101Z,99410.94
2018-05-04T18:57:50.704Z,99412.45
2018-05-04T19:00:18.398Z,99414.41
2018-05-04T19:02:51.660Z,99416.36
2018-05-04T19:05:19.268Z,99419.70
2018-05-04T19:07:46.909Z,99421.53
2018-05-04T19:10:14.576Z,99421.83
2018-05-04T19:12:42.273Z,99418.81
2018-05-04T19:15:09.924Z,99420.33
2018-05-04T19:17:37.649Z,99410.83
2018-05-04T19:20:05.327Z,99413.56
2018-05-04T19:22:33.086Z,99415.03
2018-05-04T19:25:00.746Z,99414.91
2018-05-04T19:27:28.337Z,99416.36
2018-05-04T19:29:55.976Z,99423.42
2018-05-04T19:32:23.630Z,99424.09
2018-05-04T19:34:51.239Z,99425.39
2018-05-04T19:37:18.850Z,99432.59
2018-05-04T19:39:46.530Z,99433.75
2018-05-04T19:42:14.222Z,99437.84
2018-05-04T19:44:41.888Z,99436.98
2018-05-04T19:47:09.509Z,99433.44
2018-05-04T19:49:37.131Z,99435.47
2018-05-04T19:52:04.733Z,99437.92
2018-05-04T19:54:32.382Z,99434.03
2018-05-04T19:56:59.989Z,99432.78
2018-05-04T19:59:27.623Z,99434.33
2018-05-04T20:01:55.257Z,99433.78
2018-05-04T20:04:22.846Z,99441.44
2018-05-04T20:06:50.433Z,99444.31
2018-05-04T20:09:18.069Z,99442.05
2018-05-04T20:11:45.672Z,99442.49
2018-05-04T20:14:13.289Z,99448.73
2018-05-04T20:16:40.961Z,99450.66
2018-05-04T20:19:08.593Z,99452.53
2018-05-04T20:21:36.189Z,99447.77
2018-05-04T20:24:03.850Z,99456.81
2018-05-04T20:26:31.442Z,99452.13
2018-05-04T20:28:59.029Z,99451.21
2018-05-04T20:31:26.689Z,99454.36
2018-05-04T20:33:54.285Z,99449.44
2018-05-04T20:36:21.986Z,99455.59
2018-05-04T20:38:49.754Z,99456.91
2018-05-04T20:41:17.418Z,99448.94
2018-05-04T20:43:45.025Z,99455.07
2018-05-04T20:46:12.718Z,99453.07
2018-05-04T20:48:40.461Z,99458.36
2018-05-04T20:51:08.096Z,99455.69
2018-05-04T20:53:35.790Z,99455.22
2018-05-04T20:56:03.470Z,99449.55
2018-05-04T20:58:31.158Z,99452.81
2018-05-04T21:00:58.906Z,99453.61
2018-05-04T21:03:26.582Z,99456.45
2018-05-04T21:05:54.253Z,99457.36
2018-05-04T21:08:21.918Z,99455.04
2018-05-04T21:10:49.550Z,99452.98
2018-05-04T21:13:17.206Z,99450.93
2018-05-04T21:15:44.875Z,99458.21
2018-05-04T21:18:12.534Z,99463.19
2018-05-04T21:20:40.130Z,99465.47
2018-05-04T21:23:07.859Z,99466.23
2018-05-04T21:25:35.642Z,99471.14
2018-05-04T21:28:03.292Z,99472.75
2018-05-04T21:30:30.994Z,99477.03
2018-05-04T21:32:58.725Z,99478.42
2018-05-04T21:35:26.379Z,99475.00
2018-05-04T21:37:54.173Z,99480.91
2018-05-04T21:40:21.806Z,99479.91
2018-05-04T21:42:49.472Z,99480.97
2018-05-04T21:45:17.209Z,99480.38
2018-05-04T21:47:44.914Z,99482.22
2018-05-04T21:50:12.594Z,99475.72
2018-05-04T21:52:40.333Z,99474.70
2018-05-04T21:55:08.035Z,99470.06
2018-05-04T21:57:35.738Z,99474.09
2018-05-04T22:00:03.446Z,99468.05
2018-05-04T22:02:31.114Z,99468.74
2018-05-04T22:04:58.755Z,99475.26
2018-05-04T22:07:26.466Z,99469.44
2018-05-04T22:09:54.147Z,99474.19
2018-05-04T22:12:21.779Z,99474.77
2018-05-04T22:14:49.505Z,99467.51
2018-05-04T22:17:23.126Z,99472.96
2018-05-04T22:19:50.837Z,99471.57
2018-05-04T22:22:18.520Z,99471.35
2018-05-04T22:24:46.216Z,99467.47
2018-05-04T22:27:13.908Z,99471.42
2018-05-04T22:29:41.590Z,99468.91
2018-05-04T22:32:09.245Z,99471.30
2018-05-04T22:34:36.986Z,99472.30
2018-05-04T22:37:04.646Z,99470.69
2018-05-04T22:39:32.369Z,99465.19
2018-05-04T22:42:00.034Z,99472.88
2018-05-04T22:44:27.710Z,99465.24
2018-05-04T22:46:55.368Z,99470.26
2018-05-04T22:49:23.103Z,99469.14
2018-05-04T22:51:50.745Z,99478.10
2018-05-04T22:54:18.457Z,99478.58
2018-05-04T22:56:46.117Z,99471.96
2018-05-04T22:59:13.844Z,99474.78
2018-05-04T23:01:41.517Z,99468.48
2018-05-04T23:04:09.209Z,99471.34
2018-05-04T23:06:36.933Z,99473.36
2018-05-04T23:09:04.674Z,99476.98
2018-05-04T23:11:32.330Z,99475.59
2018-05-04T23:13:59.949Z,99474.21
2018-05-04T23:16:27.589Z,99472.92
2018-05-04T23:18:55.211Z,99476.90
2018-05-04T23:21:22.830Z,99477.58
2018-05-04T23:23:50.489Z,99476.37
2018-05-04T23:26:18.141Z,99477.80
2018-05-04T23:28:45.869Z,99482.45
2018-05-04T23:31:13.549Z,99486.44
2018-05-04T23:33:41.198Z,99486.34
2018-05-04T23:36:08.855Z,99483.02
2018-05-04T23:38:36.526Z,99484.25
2018-05-04T23:41:04.137Z,99488.03
2018-05-04T23:43:31.759Z,99485.33
2018-05-04T23:45:59.378Z,99486.72
2018-05-04T23:48:26.982Z,99480.94
2018-05-04T23:50:54.647Z,99485.30
2018-05-04T23:53:22.349Z,99483.91
2018-05-04T23:55:50.017Z,99482.06
2018-05-04T23:58:17.689Z,99481.71
